Terminal Aerodrome Forecast
Issued by NWS Charleston, WV

Current Version | Previous Version | Graphics & Text | Print | Product List | Glossary On
Versions: 1 2 3 4 5 6 7 8 9 10 11 12 13 14 15 16 17 18 19 20
000
FTUS41 KRLX 041810 RRA
TAFPKB
TAF
KPKB 041810Z 0418/0518 22005KT P6SM VCSH BKN040
     FM042200 24006KT 6SM SHRA VCTS OVC040CB
     FM050000 24005KT 5SM SHRA VCTS OVC030CB
     FM050200 VRB03KT 4SM SHRA BR OVC030
     FM050400 27003KT P6SM BKN040
     FM050900 31004KT 5SM SHRA OVC015
     FM051300 35006KT 2SM SHRA BR OVC005=

USA.gov is the U.S. government's official web portal to all federal, state and local government web resources and services.